createdAt,value
2023-01-13T00:00:16.130Z,86.38
2023-01-13T00:00:50.423Z,86.37
2023-01-13T00:01:25.562Z,85.76
2023-01-13T00:01:57.437Z,85.33
2023-01-13T00:02:30.108Z,85.16
2023-01-13T00:03:01.911Z,85.17
2023-01-13T00:03:33.551Z,85.97
2023-01-13T00:04:05.279Z,85.82
2023-01-13T00:04:36.911Z,85.76
2023-01-13T00:05:09.811Z,86.53
2023-01-13T00:05:41.732Z,85.97
2023-01-13T00:06:16.665Z,86.40
2023-01-13T00:06:48.293Z,85.65
2023-01-13T00:07:19.990Z,86.32
2023-01-13T00:07:51.649Z,87.54
2023-01-13T00:08:23.307Z,87.07
2023-01-13T00:08:55.508Z,86.76
2023-01-13T00:09:27.126Z,85.82
2023-01-13T00:09:58.743Z,85.11
2023-01-13T00:10:30.599Z,85.27
2023-01-13T00:11:02.311Z,85.86
2023-01-13T00:11:34.114Z,85.58
2023-01-13T00:12:06.614Z,89.51
2023-01-13T00:12:41.946Z,89.66
2023-01-13T00:13:13.719Z,88.44
2023-01-13T00:13:45.638Z,86.76
2023-01-13T00:14:18.173Z,86.95
2023-01-13T00:14:49.827Z,86.46
2023-01-13T00:15:21.720Z,86.41
2023-01-13T00:16:10.080Z,86.64
2023-01-13T00:16:41.744Z,86.96
2023-01-13T00:17:13.403Z,86.59
2023-01-13T00:17:45.015Z,85.74
2023-01-13T00:18:16.651Z,85.92
2023-01-13T00:18:51.172Z,85.22
2023-01-13T00:19:23.384Z,85.18
2023-01-13T00:19:55.044Z,85.42
2023-01-13T00:20:26.979Z,85.22
2023-01-13T00:21:07.335Z,85.37
2023-01-13T00:21:39.199Z,85.72
2023-01-13T00:22:10.842Z,86.17
2023-01-13T00:22:42.485Z,85.22
2023-01-13T00:23:14.115Z,85.28
2023-01-13T00:23:46.741Z,85.52
2023-01-13T00:24:18.387Z,85.26
2023-01-13T00:24:50.076Z,85.22
2023-01-13T00:25:21.720Z,85.34
2023-01-13T00:26:02.197Z,85.25
2023-01-13T00:26:35.918Z,86.14
2023-01-13T00:27:07.939Z,87.14
2023-01-13T00:27:39.721Z,86.49
2023-01-13T00:28:11.493Z,86.28
2023-01-13T00:28:43.409Z,86.59
2023-01-13T00:29:15.534Z,86.28
2023-01-13T00:29:47.249Z,86.78
2023-01-13T00:30:19.575Z,86.52
2023-01-13T00:30:51.546Z,86.29
2023-01-13T00:31:23.372Z,86.63
2023-01-13T00:31:55.604Z,86.58
2023-01-13T00:32:28.324Z,86.76
2023-01-13T00:33:00.426Z,86.40
2023-01-13T00:33:32.103Z,86.22
2023-01-13T00:34:04.563Z,86.35
2023-01-13T00:34:36.341Z,86.10
2023-01-13T00:35:08.520Z,85.84
2023-01-13T00:35:40.448Z,85.97
2023-01-13T00:36:14.164Z,85.78
2023-01-13T00:36:45.863Z,85.73
2023-01-13T00:37:17.809Z,85.32
2023-01-13T00:37:49.650Z,85.84
2023-01-13T00:38:21.292Z,85.82
2023-01-13T00:38:52.929Z,85.99
2023-01-13T00:39:24.663Z,86.28
2023-01-13T00:39:57.860Z,86.57
2023-01-13T00:40:29.518Z,86.51
2023-01-13T00:41:06.166Z,86.37
2023-01-13T00:41:56.457Z,86.65
2023-01-13T00:42:47.046Z,85.85
2023-01-13T00:43:24.791Z,85.99
2023-01-13T00:43:56.442Z,85.98
2023-01-13T00:44:28.099Z,87.34
2023-01-13T00:44:59.798Z,87.88
2023-01-13T00:45:31.413Z,88.10
2023-01-13T00:46:04.748Z,87.15
2023-01-13T00:46:36.903Z,86.99
2023-01-13T00:47:08.584Z,87.03
2023-01-13T00:47:40.215Z,86.47
2023-01-13T00:48:11.867Z,86.37
2023-01-13T00:48:43.891Z,86.24
2023-01-13T00:49:15.597Z,86.00
2023-01-13T00:49:47.238Z,86.24
2023-01-13T00:50:19.058Z,86.54
2023-01-13T00:51:01.142Z,86.96
2023-01-13T00:51:32.827Z,88.90
2023-01-13T00:52:04.566Z,89.45
2023-01-13T00:52:36.620Z,88.40
2023-01-13T00:53:08.358Z,88.09
2023-01-13T00:53:43.279Z,87.29
2023-01-13T00:54:14.919Z,87.35
2023-01-13T00:54:46.571Z,87.02
2023-01-13T00:55:18.543Z,87.27
2023-01-13T00:55:50.241Z,86.74
2023-01-13T00:56:39.211Z,86.82
2023-01-13T00:57:12.283Z,86.19
2023-01-13T00:57:43.936Z,87.62
2023-01-13T00:58:15.597Z,88.95
2023-01-13T00:58:48.154Z,89.57
2023-01-13T00:59:19.814Z,89.69
2023-01-13T00:59:51.455Z,89.88
2023-01-13T01:00:25.855Z,89.45
2023-01-13T01:01:06.339Z,89.15
2023-01-13T01:01:38.493Z,87.96
2023-01-13T01:02:11.092Z,88.24
2023-01-13T01:02:42.960Z,87.65
2023-01-13T01:03:14.639Z,87.87
2023-01-13T01:03:53.405Z,87.87
2023-01-13T01:04:25.109Z,87.87
2023-01-13T01:04:56.815Z,87.86
2023-01-13T01:05:28.482Z,87.69
2023-01-13T01:06:12.012Z,87.72
2023-01-13T01:06:43.797Z,87.78
2023-01-13T01:07:15.430Z,87.87
2023-01-13T01:07:47.057Z,87.56
2023-01-13T01:08:18.679Z,87.09
2023-01-13T01:08:51.663Z,87.63
2023-01-13T01:09:23.317Z,88.10
2023-01-13T01:09:54.953Z,88.62
2023-01-13T01:10:26.612Z,88.57
2023-01-13T01:11:05.444Z,87.88
2023-01-13T01:11:37.913Z,87.45
2023-01-13T01:12:09.727Z,87.24
2023-01-13T01:12:41.404Z,87.13
2023-01-13T01:13:17.162Z,86.96
2023-01-13T01:13:53.015Z,86.79
2023-01-13T01:14:24.767Z,86.50
2023-01-13T01:14:56.384Z,86.92
2023-01-13T01:15:28.016Z,86.56
2023-01-13T01:16:00.309Z,86.67
2023-01-13T01:16:33.642Z,86.77
2023-01-13T01:17:05.366Z,86.66
2023-01-13T01:17:37.440Z,86.57
2023-01-13T01:18:09.202Z,86.25
2023-01-13T01:18:44.316Z,86.51
2023-01-13T01:19:16.475Z,86.73
2023-01-13T01:19:48.108Z,86.34
2023-01-13T01:20:19.772Z,86.50
2023-01-13T01:20:51.745Z,86.48
2023-01-13T01:21:25.501Z,86.75
2023-01-13T01:21:57.122Z,86.44
2023-01-13T01:22:28.947Z,86.67
2023-01-13T01:23:01.079Z,86.78
2023-01-13T01:23:34.162Z,87.05
2023-01-13T01:24:06.180Z,87.23
2023-01-13T01:24:37.841Z,86.76
2023-01-13T01:25:09.720Z,86.55
2023-01-13T01:25:41.341Z,86.60
2023-01-13T01:26:16.196Z,86.21
2023-01-13T01:26:47.855Z,86.43
2023-01-13T01:27:19.490Z,86.30
2023-01-13T01:27:51.151Z,86.37
2023-01-13T01:28:22.878Z,85.97
2023-01-13T01:28:55.491Z,86.21
2023-01-13T01:29:27.328Z,86.39
2023-01-13T01:29:58.953Z,86.16
2023-01-13T01:30:30.679Z,85.85
2023-01-13T01:31:15.200Z,86.29
2023-01-13T01:31:46.961Z,86.04
2023-01-13T01:32:18.638Z,86.47
2023-01-13T01:32:50.338Z,86.69
2023-01-13T01:33:22.434Z,86.56
2023-01-13T01:33:55.170Z,86.25
2023-01-13T01:34:26.849Z,86.01
2023-01-13T01:34:58.474Z,86.01
2023-01-13T01:35:30.085Z,86.11
2023-01-13T01:36:03.184Z,85.97
2023-01-13T01:36:36.305Z,86.07
2023-01-13T01:37:07.935Z,85.98
2023-01-13T01:37:39.573Z,86.14
2023-01-13T01:38:11.202Z,86.02
2023-01-13T01:38:43.551Z,86.06
2023-01-13T01:39:15.161Z,86.79
2023-01-13T01:39:46.791Z,87.35
2023-01-13T01:40:18.442Z,87.15
2023-01-13T01:40:50.140Z,86.63
2023-01-13T01:41:24.354Z,86.85
2023-01-13T01:42:14.366Z,87.23
2023-01-13T01:43:04.891Z,87.29
2023-01-13T01:44:02.972Z,87.44
2023-01-13T01:44:53.406Z,87.48
2023-01-13T01:45:26.902Z,87.24
2023-01-13T01:45:58.527Z,87.34
2023-01-13T01:46:36.638Z,86.72
2023-01-13T01:47:17.649Z,86.60
2023-01-13T01:47:57.219Z,86.52
2023-01-13T01:48:34.827Z,86.16
2023-01-13T01:49:21.355Z,86.46
2023-01-13T01:49:53.405Z,87.22
2023-01-13T01:50:27.131Z,87.05
2023-01-13T01:50:59.130Z,86.66
2023-01-13T01:51:36.954Z,86.66
2023-01-13T01:52:14.746Z,87.04
2023-01-13T01:52:54.066Z,87.05
2023-01-13T01:53:29.767Z,87.09
2023-01-13T01:54:06.308Z,87.17
2023-01-13T01:54:37.886Z,86.95
2023-01-13T01:55:15.465Z,87.12
2023-01-13T01:55:47.317Z,87.64
2023-01-13T01:56:20.053Z,87.53
2023-01-13T01:56:53.058Z,87.02
2023-01-13T01:57:36.993Z,87.06
2023-01-13T01:58:17.402Z,87.37
2023-01-13T01:58:52.330Z,87.26
2023-01-13T01:59:27.548Z,88.08
2023-01-13T02:00:01.079Z,88.04
2023-01-13T02:00:32.825Z,88.68
2023-01-13T02:01:04.683Z,88.83
2023-01-13T02:01:38.766Z,88.49
2023-01-13T02:02:10.967Z,88.58
2023-01-13T02:02:47.279Z,88.61
2023-01-13T02:03:19.884Z,89.24
2023-01-13T02:03:59.505Z,89.92
2023-01-13T02:04:36.158Z,90.39
2023-01-13T02:05:08.419Z,90.58
2023-01-13T02:05:40.199Z,90.71
2023-01-13T02:06:13.424Z,90.50
2023-01-13T02:06:47.703Z,90.37
2023-01-13T02:07:26.331Z,90.04
2023-01-13T02:08:00.319Z,90.11
2023-01-13T02:08:33.016Z,89.88
2023-01-13T02:09:05.363Z,89.78
2023-01-13T02:09:37.081Z,89.99
2023-01-13T02:10:14.054Z,90.40
2023-01-13T02:10:53.272Z,91.09
2023-01-13T02:11:54.698Z,90.43
2023-01-13T02:12:34.517Z,89.98
2023-01-13T02:13:12.241Z,89.86
2023-01-13T02:13:43.909Z,89.85
2023-01-13T02:14:16.370Z,90.27
2023-01-13T02:14:48.125Z,91.05
2023-01-13T02:15:41.762Z,91.10
2023-01-13T02:16:22.039Z,90.46
2023-01-13T02:17:49.973Z,90.29
2023-01-13T02:18:39.469Z,91.62
2023-01-13T02:19:54.537Z,91.46
2023-01-13T02:20:41.049Z,91.43
2023-01-13T02:21:42.902Z,90.92
2023-01-13T02:22:45.163Z,90.86
2023-01-13T02:23:54.232Z,90.51
2023-01-13T02:24:55.369Z,89.88
2023-01-13T02:25:30.057Z,90.19
2023-01-13T02:26:10.869Z,89.86
2023-01-13T02:27:14.181Z,89.39
2023-01-13T02:27:51.457Z,89.40
2023-01-13T02:29:15.454Z,89.26
2023-01-13T02:30:46.416Z,88.62
2023-01-13T02:31:37.243Z,88.66
2023-01-13T02:32:29.059Z,88.88
2023-01-13T02:33:25.236Z,88.52
2023-01-13T02:34:09.687Z,88.41
2023-01-13T02:34:55.703Z,88.36
2023-01-13T02:35:33.144Z,88.14
2023-01-13T02:36:20.933Z,87.81
2023-01-13T02:37:01.416Z,88.20
2023-01-13T02:37:38.909Z,88.73
2023-01-13T02:38:15.488Z,88.24
2023-01-13T02:39:00.913Z,88.37
2023-01-13T02:39:59.782Z,88.58
2023-01-13T02:40:47.019Z,88.33
2023-01-13T02:41:50.094Z,88.48
2023-01-13T02:43:10.774Z,88.32
2023-01-13T02:44:01.761Z,88.10
2023-01-13T02:44:42.572Z,87.59
2023-01-13T02:45:41.510Z,88.22
2023-01-13T02:46:25.508Z,87.94
2023-01-13T02:47:15.286Z,88.02
2023-01-13T02:47:50.722Z,87.85
2023-01-13T02:48:24.552Z,87.78
2023-01-13T02:49:03.126Z,87.78
2023-01-13T02:49:40.407Z,88.11
2023-01-13T02:50:20.990Z,88.56
2023-01-13T02:51:08.346Z,88.12
2023-01-13T02:51:42.200Z,87.87
2023-01-13T02:52:45.558Z,88.32
2023-01-13T02:53:30.742Z,88.08
2023-01-13T02:54:13.692Z,88.31
2023-01-13T02:54:52.882Z,88.49
2023-01-13T02:55:34.877Z,88.31
2023-01-13T02:56:10.178Z,88.32
2023-01-13T02:56:47.283Z,88.65
2023-01-13T02:57:21.693Z,88.24
2023-01-13T02:57:55.603Z,88.35
2023-01-13T02:58:31.848Z,88.01
2023-01-13T02:59:05.437Z,88.36
2023-01-13T02:59:40.243Z,88.38
2023-01-13T03:00:15.531Z,88.27
2023-01-13T03:00:49.380Z,88.44
2023-01-13T03:01:21.335Z,88.20
2023-01-13T03:01:57.109Z,88.04
2023-01-13T03:02:29.132Z,87.79
2023-01-13T03:03:01.608Z,87.92
2023-01-13T03:03:33.305Z,88.49
2023-01-13T03:04:15.364Z,87.94
2023-01-13T03:04:51.483Z,88.02
2023-01-13T03:05:23.261Z,88.21
2023-01-13T03:06:10.789Z,88.11
2023-01-13T03:07:13.059Z,88.06
2023-01-13T03:08:03.025Z,87.91
2023-01-13T03:08:52.103Z,87.80
2023-01-13T03:09:34.420Z,87.82
2023-01-13T03:10:17.756Z,87.64
2023-01-13T03:11:12.879Z,87.60
2023-01-13T03:11:56.275Z,87.67
2023-01-13T03:12:55.352Z,87.51
2023-01-13T03:13:39.272Z,87.60
2023-01-13T03:14:46.172Z,87.71
2023-01-13T03:15:30.143Z,87.74
2023-01-13T03:16:17.049Z,87.61
2023-01-13T03:17:16.388Z,87.55
2023-01-13T03:18:03.002Z,87.51
2023-01-13T03:18:52.816Z,87.18
2023-01-13T03:20:01.396Z,86.95
2023-01-13T03:20:41.224Z,87.38
2023-01-13T03:21:23.094Z,87.76
2023-01-13T03:22:12.235Z,87.62
2023-01-13T03:23:05.192Z,88.11
2023-01-13T03:23:42.426Z,88.20
2023-01-13T03:24:28.413Z,88.07
2023-01-13T03:25:10.619Z,88.08
2023-01-13T03:25:56.323Z,87.86
2023-01-13T03:26:44.112Z,87.03
2023-01-13T03:27:35.626Z,87.52
2023-01-13T03:28:16.239Z,87.63
2023-01-13T03:29:01.015Z,88.00
2023-01-13T03:29:39.394Z,87.61
2023-01-13T03:30:22.179Z,87.26
2023-01-13T03:31:02.744Z,87.74
2023-01-13T03:31:44.177Z,88.06
2023-01-13T03:32:25.611Z,87.85
2023-01-13T03:33:04.919Z,87.72
2023-01-13T03:33:45.788Z,88.21
2023-01-13T03:34:22.822Z,88.32
2023-01-13T03:34:58.631Z,87.94
2023-01-13T03:35:38.150Z,88.04
2023-01-13T03:36:13.798Z,87.74
2023-01-13T03:36:51.731Z,87.73
2023-01-13T03:37:30.941Z,87.51
2023-01-13T03:38:16.088Z,87.61
2023-01-13T03:38:54.799Z,87.88
2023-01-13T03:39:33.370Z,87.66
2023-01-13T03:40:37.497Z,87.61
2023-01-13T03:41:17.303Z,87.92
2023-01-13T03:41:59.929Z,88.01
2023-01-13T03:42:37.693Z,88.02
2023-01-13T03:43:34.581Z,88.74
2023-01-13T03:44:24.436Z,88.60
2023-01-13T03:45:05.288Z,88.22
2023-01-13T03:45:41.203Z,88.10
2023-01-13T03:46:24.360Z,88.08
2023-01-13T03:47:05.209Z,87.11
2023-01-13T03:47:41.482Z,87.53
2023-01-13T03:48:19.707Z,87.70
2023-01-13T03:48:58.059Z,87.84
2023-01-13T03:49:39.715Z,87.80
2023-01-13T03:50:22.795Z,88.16
2023-01-13T03:51:03.474Z,87.89
2023-01-13T03:51:39.672Z,87.98
2023-01-13T03:52:19.305Z,87.93
2023-01-13T03:52:58.221Z,87.96
2023-01-13T03:53:39.470Z,88.12
2023-01-13T03:54:15.782Z,88.05
2023-01-13T03:55:00.483Z,87.90
2023-01-13T03:55:36.623Z,88.19
2023-01-13T03:56:21.305Z,88.14
2023-01-13T03:57:00.251Z,88.20
2023-01-13T03:57:38.714Z,88.32
2023-01-13T03:58:33.915Z,88.06
2023-01-13T03:59:11.764Z,88.16
2023-01-13T03:59:51.141Z,88.44
2023-01-13T04:00:27.905Z,88.53
2023-01-13T04:01:05.484Z,88.60
2023-01-13T04:02:09.214Z,88.62
2023-01-13T04:03:01.937Z,88.72
2023-01-13T04:03:46.566Z,88.76
2023-01-13T04:04:46.982Z,88.29
2023-01-13T04:05:19.015Z,88.41
2023-01-13T04:05:58.450Z,88.55
2023-01-13T04:06:47.518Z,88.43
2023-01-13T04:07:46.848Z,88.38
2023-01-13T04:08:25.927Z,88.10
2023-01-13T04:09:45.737Z,88.30
2023-01-13T04:10:26.900Z,88.30
2023-01-13T04:11:06.761Z,88.14
2023-01-13T04:11:45.514Z,88.59
2023-01-13T04:12:52.210Z,88.08
2023-01-13T04:13:30.636Z,87.76
2023-01-13T04:14:06.159Z,88.52
2023-01-13T04:14:38.981Z,88.78
2023-01-13T04:15:12.811Z,89.33
2023-01-13T04:15:46.680Z,88.64
2023-01-13T04:16:18.481Z,88.35
2023-01-13T04:16:50.511Z,88.35
2023-01-13T04:17:24.626Z,88.21
2023-01-13T04:18:09.023Z,88.70
2023-01-13T04:18:40.872Z,88.65
2023-01-13T04:19:12.945Z,88.91
2023-01-13T04:19:44.918Z,89.43
2023-01-13T04:20:17.204Z,88.88
2023-01-13T04:20:52.519Z,89.08
2023-01-13T04:21:24.278Z,89.86
2023-01-13T04:21:55.962Z,89.86
2023-01-13T04:22:28.004Z,89.53
2023-01-13T04:22:59.789Z,89.47
2023-01-13T04:23:32.695Z,89.83
2023-01-13T04:24:04.750Z,89.51
2023-01-13T04:24:37.225Z,89.13
2023-01-13T04:25:10.409Z,89.51
2023-01-13T04:25:43.822Z,89.01
2023-01-13T04:26:15.593Z,89.35
2023-01-13T04:26:47.494Z,88.21
2023-01-13T04:27:19.133Z,88.28
2023-01-13T04:27:50.814Z,88.38
2023-01-13T04:28:23.680Z,88.53
2023-01-13T04:28:55.495Z,88.23
2023-01-13T04:29:27.190Z,88.83
2023-01-13T04:29:58.859Z,88.76
2023-01-13T04:30:30.557Z,88.48
2023-01-13T04:31:02.313Z,88.23
2023-01-13T04:31:33.972Z,87.93
2023-01-13T04:32:05.774Z,88.44
2023-01-13T04:32:37.440Z,88.19
2023-01-13T04:33:10.155Z,88.54
2023-01-13T04:33:41.809Z,88.41
2023-01-13T04:34:13.531Z,88.63
2023-01-13T04:34:45.164Z,88.59
2023-01-13T04:35:16.837Z,88.34
2023-01-13T04:35:48.850Z,88.50
2023-01-13T04:36:25.109Z,88.67
2023-01-13T04:36:56.891Z,89.18
2023-01-13T04:37:28.550Z,89.29
2023-01-13T04:38:05.083Z,89.45
2023-01-13T04:38:36.781Z,89.21
2023-01-13T04:39:08.461Z,89.48
2023-01-13T04:39:40.100Z,89.22
2023-01-13T04:40:12.036Z,89.64
2023-01-13T04:40:44.216Z,89.26
2023-01-13T04:41:15.893Z,88.93
2023-01-13T04:41:59.781Z,88.81
2023-01-13T04:42:31.458Z,88.15
2023-01-13T04:43:03.209Z,88.13
2023-01-13T04:43:34.860Z,87.95
2023-01-13T04:44:06.548Z,87.84
2023-01-13T04:44:38.182Z,87.76
2023-01-13T04:45:10.292Z,87.44
2023-01-13T04:45:44.324Z,87.32
2023-01-13T04:46:16.025Z,87.68
2023-01-13T04:46:47.672Z,87.58
2023-01-13T04:47:19.396Z,87.70
2023-01-13T04:47:51.678Z,88.18
2023-01-13T04:48:23.305Z,88.15
2023-01-13T04:48:54.940Z,88.12
2023-01-13T04:49:26.744Z,88.18
2023-01-13T04:49:58.385Z,88.18
2023-01-13T04:50:30.082Z,88.08
2023-01-13T04:51:01.758Z,87.93
2023-01-13T04:51:33.384Z,87.67
2023-01-13T04:52:07.054Z,88.08
2023-01-13T04:52:39.348Z,87.78
2023-01-13T04:53:11.626Z,87.93
2023-01-13T04:53:43.291Z,87.56
2023-01-13T04:54:14.942Z,87.59
2023-01-13T04:54:46.588Z,87.41
2023-01-13T04:55:19.788Z,87.24
2023-01-13T04:55:52.188Z,87.41
2023-01-13T04:56:23.827Z,87.40
2023-01-13T04:56:55.501Z,87.34
2023-01-13T04:57:27.347Z,87.45
2023-01-13T04:58:06.160Z,87.69
2023-01-13T04:58:37.813Z,87.55
2023-01-13T04:59:11.244Z,87.19
2023-01-13T04:59:42.915Z,87.59
2023-01-13T05:00:17.727Z,87.26
2023-01-13T05:00:50.889Z,87.78
2023-01-13T05:01:22.633Z,87.87
2023-01-13T05:01:54.593Z,87.58
2023-01-13T05:02:26.329Z,87.33
2023-01-13T05:02:58.410Z,87.98
2023-01-13T05:03:30.053Z,87.59
2023-01-13T05:04:01.750Z,87.92
2023-01-13T05:04:33.445Z,87.16
2023-01-13T05:05:05.650Z,88.13
2023-01-13T05:05:38.282Z,87.95
2023-01-13T05:06:10.227Z,88.09
2023-01-13T05:06:41.892Z,88.22
2023-01-13T05:07:15.927Z,88.21
2023-01-13T05:07:47.602Z,87.66
2023-01-13T05:08:19.418Z,87.46
2023-01-13T05:08:51.152Z,87.58
2023-01-13T05:09:22.834Z,88.20
2023-01-13T05:09:54.493Z,87.33
2023-01-13T05:10:27.193Z,87.93
2023-01-13T05:11:21.990Z,87.50
2023-01-13T05:12:12.418Z,87.56
2023-01-13T05:13:02.945Z,87.75
2023-01-13T05:13:53.354Z,87.09
2023-01-13T05:14:43.698Z,87.07
2023-01-13T05:15:45.134Z,86.97
2023-01-13T05:16:35.146Z,87.14
2023-01-13T05:17:10.043Z,87.44
2023-01-13T05:17:42.724Z,86.86
2023-01-13T05:18:15.021Z,87.19
2023-01-13T05:18:46.758Z,87.15
2023-01-13T05:19:18.390Z,87.32
2023-01-13T05:19:50.421Z,87.50
2023-01-13T05:20:22.169Z,87.12
2023-01-13T05:20:53.864Z,87.76
2023-01-13T05:21:43.932Z,87.44
2023-01-13T05:22:34.177Z,87.37
2023-01-13T05:23:24.381Z,87.72
2023-01-13T05:24:14.913Z,87.21
2023-01-13T05:25:05.455Z,87.22
2023-01-13T05:25:40.488Z,87.13
2023-01-13T05:26:12.189Z,87.31
2023-01-13T05:26:44.769Z,87.30
2023-01-13T05:27:16.427Z,87.13
2023-01-13T05:27:49.619Z,87.09
2023-01-13T05:28:21.451Z,87.36
2023-01-13T05:28:53.115Z,87.45
2023-01-13T05:29:24.755Z,87.18
2023-01-13T05:29:56.447Z,87.07
2023-01-13T05:30:32.363Z,87.57
2023-01-13T05:31:04.088Z,87.19
2023-01-13T05:31:35.794Z,87.52
2023-01-13T05:32:08.393Z,86.96
2023-01-13T05:32:40.108Z,87.03
2023-01-13T05:33:14.868Z,87.50
2023-01-13T05:33:46.500Z,87.35
2023-01-13T05:34:18.326Z,87.63
2023-01-13T05:34:50.383Z,87.23
2023-01-13T05:35:22.795Z,87.31
2023-01-13T05:35:54.459Z,86.93
2023-01-13T05:36:26.112Z,87.35
2023-01-13T05:36:57.828Z,87.27
2023-01-13T05:37:29.888Z,87.19
2023-01-13T05:38:01.583Z,87.32
2023-01-13T05:38:33.286Z,87.18
2023-01-13T05:39:05.399Z,86.94
2023-01-13T05:39:55.482Z,87.49
2023-01-13T05:40:45.926Z,86.58
2023-01-13T05:41:36.155Z,87.49
2023-01-13T05:42:27.194Z,86.88
2023-01-13T05:43:21.913Z,87.24
2023-01-13T05:43:53.657Z,86.98
2023-01-13T05:44:25.295Z,86.76
2023-01-13T05:44:56.953Z,87.22
2023-01-13T05:45:30.613Z,89.95
2023-01-13T05:46:08.854Z,93.94
2023-01-13T05:46:41.957Z,94.98
2023-01-13T05:47:13.712Z,95.63
2023-01-13T05:47:45.350Z,96.55
2023-01-13T05:48:19.096Z,97.08
2023-01-13T05:48:50.790Z,97.70
2023-01-13T05:49:22.451Z,98.49
2023-01-13T05:49:54.101Z,97.15
2023-01-13T05:50:25.734Z,94.68
2023-01-13T05:50:57.810Z,91.47
2023-01-13T05:51:29.460Z,89.22
2023-01-13T05:52:01.087Z,88.01
2023-01-13T05:52:32.846Z,87.20
2023-01-13T05:53:05.171Z,87.14
2023-01-13T05:53:37.137Z,86.87
2023-01-13T05:54:08.825Z,86.90
2023-01-13T05:54:41.322Z,87.22
2023-01-13T05:55:13.255Z,87.00
2023-01-13T05:55:45.975Z,86.23
2023-01-13T05:56:18.066Z,86.21
2023-01-13T05:56:49.721Z,86.66
2023-01-13T05:57:21.385Z,85.92
2023-01-13T05:57:53.158Z,85.59
2023-01-13T05:58:27.017Z,86.12
2023-01-13T05:58:58.868Z,86.00
2023-01-13T05:59:30.589Z,86.08
2023-01-13T06:00:02.600Z,85.89
2023-01-13T06:00:34.231Z,85.86
2023-01-13T06:01:09.005Z,86.14
2023-01-13T06:01:40.706Z,86.33
2023-01-13T06:02:12.405Z,86.13
2023-01-13T06:02:44.113Z,86.26
2023-01-13T06:03:16.610Z,86.41
2023-01-13T06:03:48.239Z,86.03
2023-01-13T06:04:20.005Z,86.23
2023-01-13T06:04:51.722Z,86.11
2023-01-13T06:05:23.466Z,86.09
2023-01-13T06:06:01.484Z,86.18
2023-01-13T06:06:33.270Z,85.89
2023-01-13T06:07:05.311Z,86.69
2023-01-13T06:07:36.959Z,86.38
2023-01-13T06:08:09.037Z,86.28
2023-01-13T06:08:40.670Z,86.35
2023-01-13T06:09:12.369Z,86.25
2023-01-13T06:09:44.054Z,86.56
2023-01-13T06:10:15.892Z,86.86
2023-01-13T06:10:47.550Z,87.15
2023-01-13T06:11:19.282Z,87.11
2023-01-13T06:11:50.947Z,87.37
2023-01-13T06:12:25.530Z,87.64
2023-01-13T06:12:57.951Z,87.84
2023-01-13T06:13:29.673Z,88.40
2023-01-13T06:14:01.349Z,88.70
2023-01-13T06:14:40.166Z,88.14
2023-01-13T06:15:11.827Z,87.97
2023-01-13T06:15:43.601Z,87.76
2023-01-13T06:16:15.355Z,88.30
2023-01-13T06:16:47.032Z,88.99
2023-01-13T06:17:18.789Z,90.82
2023-01-13T06:17:50.682Z,93.60
2023-01-13T06:18:22.329Z,95.39
2023-01-13T06:18:54.593Z,96.43
2023-01-13T06:19:26.252Z,97.69
2023-01-13T06:19:57.911Z,97.58
2023-01-13T06:20:29.653Z,95.47
2023-01-13T06:21:01.371Z,92.68
2023-01-13T06:21:33.350Z,94.63
2023-01-13T06:22:23.933Z,95.09
2023-01-13T06:22:55.805Z,92.06
2023-01-13T06:23:38.834Z,91.18
2023-01-13T06:24:10.801Z,90.00
2023-01-13T06:24:46.294Z,89.34
2023-01-13T06:25:51.123Z,88.99
2023-01-13T06:26:31.165Z,89.35
2023-01-13T06:27:07.946Z,90.06
2023-01-13T06:27:43.685Z,89.65
2023-01-13T06:28:15.666Z,90.12
2023-01-13T06:28:47.674Z,90.34
2023-01-13T06:29:20.119Z,90.35
2023-01-13T06:29:52.306Z,89.78
2023-01-13T06:30:24.408Z,90.08
2023-01-13T06:31:07.527Z,90.12
2023-01-13T06:31:41.457Z,90.49
2023-01-13T06:32:23.167Z,90.26
2023-01-13T06:32:59.218Z,90.88
2023-01-13T06:33:39.201Z,89.99
2023-01-13T06:34:16.697Z,90.36
2023-01-13T06:35:05.707Z,90.67
2023-01-13T06:35:43.667Z,90.33
2023-01-13T06:36:35.407Z,90.27
2023-01-13T06:37:19.862Z,90.14
2023-01-13T06:37:59.668Z,90.14
2023-01-13T06:38:36.224Z,90.55
2023-01-13T06:39:17.737Z,90.82
2023-01-13T06:40:03.982Z,91.10
2023-01-13T06:40:36.541Z,90.75
2023-01-13T06:41:09.192Z,90.74
2023-01-13T06:41:59.836Z,90.65
2023-01-13T06:42:56.409Z,90.42
2023-01-13T06:43:28.608Z,90.91
2023-01-13T06:44:00.477Z,90.80
2023-01-13T06:44:33.916Z,91.20
2023-01-13T06:45:06.280Z,90.99
2023-01-13T06:45:42.045Z,90.74
2023-01-13T06:46:15.739Z,90.73
2023-01-13T06:47:00.089Z,90.88
2023-01-13T06:48:36.159Z,90.94
2023-01-13T06:49:11.948Z,90.92
2023-01-13T06:49:44.019Z,90.61
2023-01-13T06:50:21.207Z,90.80
2023-01-13T06:50:53.120Z,90.92
2023-01-13T06:51:26.677Z,90.64
2023-01-13T06:52:00.168Z,90.24
2023-01-13T06:52:32.053Z,90.61
2023-01-13T06:53:04.276Z,90.54
2023-01-13T06:53:36.033Z,90.57
2023-01-13T06:54:08.350Z,90.44
2023-01-13T06:54:40.157Z,90.23
2023-01-13T06:55:12.256Z,90.40
2023-01-13T06:55:44.614Z,90.55
2023-01-13T06:56:24.222Z,90.62
2023-01-13T06:56:55.977Z,90.62
2023-01-13T06:57:27.641Z,89.78
2023-01-13T06:57:59.410Z,89.54
2023-01-13T06:58:31.065Z,89.50
2023-01-13T06:59:02.750Z,89.10
2023-01-13T06:59:35.247Z,89.10
2023-01-13T07:00:07.629Z,89.27
2023-01-13T07:00:39.681Z,89.29
2023-01-13T07:01:11.421Z,88.89
2023-01-13T07:01:43.813Z,88.99
2023-01-13T07:02:15.586Z,88.79
2023-01-13T07:02:47.709Z,88.47
2023-01-13T07:03:19.805Z,88.51
2023-01-13T07:03:51.674Z,88.70
2023-01-13T07:04:23.331Z,89.04
2023-01-13T07:04:55.000Z,88.55
2023-01-13T07:05:26.674Z,88.77
2023-01-13T07:05:58.871Z,88.65
2023-01-13T07:06:30.592Z,88.64
2023-01-13T07:07:02.292Z,87.97
2023-01-13T07:07:33.992Z,87.52
2023-01-13T07:08:06.410Z,88.23
2023-01-13T07:08:43.437Z,88.78
2023-01-13T07:09:15.158Z,88.81
2023-01-13T07:09:46.887Z,88.85
2023-01-13T07:10:22.374Z,88.75
2023-01-13T07:10:54.601Z,88.93
2023-01-13T07:11:26.542Z,88.56
2023-01-13T07:11:58.177Z,88.73
2023-01-13T07:12:29.870Z,88.64
2023-01-13T07:13:21.699Z,88.88
2023-01-13T07:14:12.189Z,88.89
2023-01-13T07:15:02.392Z,88.72
2023-01-13T07:15:34.785Z,89.04
2023-01-13T07:16:08.910Z,89.50
2023-01-13T07:16:40.646Z,89.16
2023-01-13T07:17:12.322Z,88.98
2023-01-13T07:17:43.954Z,89.33
2023-01-13T07:18:15.926Z,89.09
2023-01-13T07:18:47.614Z,89.12
2023-01-13T07:19:23.717Z,88.83
2023-01-13T07:19:55.393Z,88.92
2023-01-13T07:20:27.385Z,89.19
2023-01-13T07:21:02.119Z,89.58
2023-01-13T07:21:33.849Z,89.86
2023-01-13T07:22:05.522Z,89.67
2023-01-13T07:22:37.240Z,89.51
2023-01-13T07:23:08.978Z,89.62
2023-01-13T07:23:41.596Z,89.31
2023-01-13T07:24:14.452Z,89.52
2023-01-13T07:24:46.119Z,89.36
2023-01-13T07:25:17.786Z,89.37
2023-01-13T07:25:50.401Z,92.01
2023-01-13T07:26:22.093Z,92.26
2023-01-13T07:26:53.828Z,90.40
2023-01-13T07:27:25.480Z,89.32
2023-01-13T07:27:57.603Z,89.35
2023-01-13T07:28:30.965Z,88.76
2023-01-13T07:29:02.636Z,88.94
2023-01-13T07:29:34.286Z,88.19
2023-01-13T07:30:06.516Z,88.42
2023-01-13T07:30:38.569Z,88.83
2023-01-13T07:31:16.899Z,89.07
2023-01-13T07:31:50.229Z,89.18
2023-01-13T07:32:22.079Z,89.14
2023-01-13T07:32:53.740Z,89.38
2023-01-13T07:33:25.899Z,89.16
2023-01-13T07:33:57.588Z,88.58
2023-01-13T07:34:29.278Z,88.57
2023-01-13T07:35:05.323Z,87.98
2023-01-13T07:35:37.051Z,87.88
2023-01-13T07:36:09.268Z,88.99
2023-01-13T07:36:40.923Z,88.79
2023-01-13T07:37:12.596Z,88.63
2023-01-13T07:37:44.324Z,88.42
2023-01-13T07:38:16.083Z,88.75
2023-01-13T07:38:47.903Z,88.22
2023-01-13T07:39:19.534Z,88.06
2023-01-13T07:39:51.190Z,88.11
2023-01-13T07:40:22.859Z,87.88
2023-01-13T07:40:55.073Z,87.89
2023-01-13T07:41:45.286Z,88.06
2023-01-13T07:42:35.682Z,88.25
2023-01-13T07:43:26.098Z,88.57
2023-01-13T07:43:57.794Z,88.24
2023-01-13T07:44:29.434Z,88.11
2023-01-13T07:45:02.587Z,88.02
2023-01-13T07:45:34.289Z,88.04
2023-01-13T07:46:06.518Z,88.37
2023-01-13T07:46:39.074Z,88.61
2023-01-13T07:47:11.283Z,88.48
2023-01-13T07:47:42.973Z,88.93
2023-01-13T07:48:14.678Z,88.68
2023-01-13T07:48:49.038Z,88.48
2023-01-13T07:49:21.717Z,89.35
2023-01-13T07:49:53.413Z,88.89
2023-01-13T07:50:25.129Z,88.75